createdAt,value
2022-11-17T00:01:28.494Z,21.30
2022-11-17T00:03:55.180Z,25.40
2022-11-17T00:06:21.946Z,18.45
2022-11-17T00:08:49.013Z,16.75
2022-11-17T00:11:15.915Z,16.80
2022-11-17T00:14:01.163Z,16.02
2022-11-17T00:16:27.895Z,20.27
2022-11-17T00:19:13.253Z,18.63
2022-11-17T00:21:40.164Z,19.67
2022-11-17T00:24:07.066Z,15.85
2022-11-17T00:26:35.160Z,17.45
2022-11-17T00:29:04.635Z,17.33
2022-11-17T00:31:50.846Z,18.45
2022-11-17T00:34:21.867Z,23.40
2022-11-17T00:36:50.084Z,41.83
2022-11-17T00:39:17.520Z,17.33
2022-11-17T00:41:44.474Z,16.50
2022-11-17T00:44:11.641Z,15.80
2022-11-17T00:46:39.170Z,15.85
2022-11-17T00:49:07.019Z,16.35
2022-11-17T00:51:34.126Z,15.27
2022-11-17T00:54:01.311Z,11.30
2022-11-17T00:56:28.156Z,28.45
2022-11-17T00:58:55.654Z,11.23
2022-11-17T01:01:23.093Z,11.10
2022-11-17T01:03:49.928Z,10.32
2022-11-17T01:06:18.545Z,9.52
2022-11-17T01:08:45.344Z,10.52
2022-11-17T01:11:15.988Z,10.90
2022-11-17T01:13:43.345Z,13.07
2022-11-17T01:16:14.375Z,11.82
2022-11-17T01:18:41.786Z,9.90
2022-11-17T01:21:12.958Z,11.93
2022-11-17T01:23:40.613Z,10.82
2022-11-17T01:26:08.899Z,10.82
2022-11-17T01:28:36.605Z,11.88
2022-11-17T01:31:05.769Z,13.18
2022-11-17T01:33:32.979Z,13.52
2022-11-17T01:36:00.508Z,14.30
2022-11-17T01:38:27.161Z,12.30
2022-11-17T01:40:53.799Z,16.95
2022-11-17T01:43:39.410Z,16.10
2022-11-17T01:46:07.829Z,14.90
2022-11-17T01:48:34.497Z,14.38
2022-11-17T01:51:01.209Z,14.05
2022-11-17T01:53:30.677Z,14.15
2022-11-17T01:55:59.677Z,15.43
2022-11-17T01:58:35.428Z,12.73
2022-11-17T02:01:02.525Z,13.35
2022-11-17T02:03:32.997Z,26.23
2022-11-17T02:06:02.974Z,13.93
2022-11-17T02:08:32.020Z,15.80
2022-11-17T02:11:03.986Z,16.00
2022-11-17T02:13:30.882Z,12.35
2022-11-17T02:15:57.549Z,15.23
2022-11-17T02:18:25.177Z,15.82
2022-11-17T02:20:52.779Z,15.88
2022-11-17T02:23:19.411Z,16.05
2022-11-17T02:26:01.045Z,13.05
2022-11-17T02:28:29.959Z,15.50
2022-11-17T02:31:15.450Z,13.27
2022-11-17T02:33:55.058Z,12.45
2022-11-17T02:36:45.037Z,12.32
2022-11-17T02:39:11.772Z,14.10
2022-11-17T02:41:46.800Z,17.13
2022-11-17T02:44:18.944Z,14.95
2022-11-17T02:46:47.678Z,14.80
2022-11-17T02:49:23.608Z,15.40
2022-11-17T02:51:51.245Z,12.10
2022-11-17T02:54:18.753Z,12.48
2022-11-17T02:56:45.520Z,12.68
2022-11-17T02:59:14.534Z,15.73
2022-11-17T03:01:41.411Z,10.05
2022-11-17T03:04:14.422Z,12.88
2022-11-17T03:06:41.338Z,12.10
2022-11-17T03:09:26.739Z,15.68
2022-11-17T03:11:56.393Z,11.88
2022-11-17T03:14:41.591Z,10.35
2022-11-17T03:17:17.825Z,10.63
2022-11-17T03:19:47.248Z,10.88
2022-11-17T03:22:19.683Z,13.23
2022-11-17T03:24:58.234Z,11.23
2022-11-17T03:27:30.957Z,10.57
2022-11-17T03:30:00.592Z,11.63
2022-11-17T03:32:29.559Z,11.35
2022-11-17T03:35:01.061Z,11.85
2022-11-17T03:37:30.104Z,10.90
2022-11-17T03:40:02.135Z,11.48
2022-11-17T03:42:30.604Z,11.85
2022-11-17T03:45:00.982Z,12.38
2022-11-17T03:47:28.476Z,14.30
2022-11-17T03:50:01.634Z,11.82
2022-11-17T03:52:29.719Z,12.55
2022-11-17T03:54:56.675Z,13.27
2022-11-17T03:57:35.031Z,10.25
2022-11-17T04:00:01.743Z,10.20
2022-11-17T04:02:28.463Z,9.90
2022-11-17T04:05:07.408Z,10.10
2022-11-17T04:07:35.544Z,10.25
2022-11-17T04:10:02.824Z,10.88
2022-11-17T04:12:48.190Z,9.60
2022-11-17T04:15:33.467Z,10.30
2022-11-17T04:18:00.182Z,10.52
2022-11-17T04:20:27.081Z,9.73
2022-11-17T04:23:08.980Z,11.15
2022-11-17T04:25:58.258Z,10.38
2022-11-17T04:28:38.013Z,13.07
2022-11-17T04:31:29.129Z,14.32
2022-11-17T04:33:57.187Z,11.40
2022-11-17T04:36:36.227Z,12.73
2022-11-17T04:39:03.604Z,13.25
2022-11-17T04:41:49.506Z,10.63
2022-11-17T04:44:18.021Z,9.65
2022-11-17T04:46:46.032Z,9.80
2022-11-17T04:49:13.655Z,10.25
2022-11-17T04:51:40.585Z,18.60
2022-11-17T04:54:09.344Z,11.18
2022-11-17T04:56:37.170Z,13.35
2022-11-17T04:59:05.303Z,11.13
2022-11-17T05:01:32.307Z,11.68
2022-11-17T05:04:02.849Z,18.50
2022-11-17T05:06:29.454Z,14.82
2022-11-17T05:08:56.384Z,10.90
2022-11-17T05:11:46.200Z,12.57
2022-11-17T05:14:13.842Z,15.05
2022-11-17T05:17:01.282Z,12.88
2022-11-17T05:19:49.283Z,17.27
2022-11-17T05:22:36.591Z,12.98
2022-11-17T05:25:03.947Z,16.52
2022-11-17T05:27:31.205Z,20.10
2022-11-17T05:29:58.452Z,21.55
2022-11-17T05:32:25.455Z,21.27
2022-11-17T05:34:52.365Z,16.10
2022-11-17T05:37:19.120Z,17.27
2022-11-17T05:39:46.106Z,22.42
2022-11-17T05:42:12.866Z,18.23
2022-11-17T05:44:40.198Z,18.63
2022-11-17T05:47:07.055Z,23.48
2022-11-17T05:49:33.697Z,18.70
2022-11-17T05:52:00.444Z,19.92
2022-11-17T05:54:27.673Z,21.33
2022-11-17T05:57:00.806Z,26.30
2022-11-17T05:59:31.312Z,19.85
2022-11-17T06:01:57.949Z,23.83
2022-11-17T06:04:24.819Z,21.73
2022-11-17T06:06:51.848Z,16.63
2022-11-17T06:09:18.579Z,24.90
2022-11-17T06:11:45.256Z,19.17
2022-11-17T06:14:11.937Z,22.45
2022-11-17T06:16:41.838Z,18.23
2022-11-17T06:19:11.599Z,22.77
2022-11-17T06:22:10.071Z,22.85
2022-11-17T06:24:25.011Z,32.13
2022-11-17T06:26:52.007Z,17.20
2022-11-17T06:29:18.850Z,23.35
2022-11-17T06:31:45.817Z,17.60
2022-11-17T06:34:13.004Z,15.80
2022-11-17T06:36:39.995Z,18.75
2022-11-17T06:39:06.654Z,18.10
2022-11-17T06:41:33.401Z,18.48
2022-11-17T06:44:00.143Z,20.45
2022-11-17T06:46:37.810Z,22.98
2022-11-17T06:49:07.814Z,17.45
2022-11-17T06:51:35.173Z,20.90
2022-11-17T06:54:04.214Z,21.17
2022-11-17T06:56:32.232Z,18.90
2022-11-17T06:59:02.271Z,17.42
2022-11-17T07:01:30.865Z,19.33
2022-11-17T07:03:57.570Z,18.48
2022-11-17T07:06:31.260Z,30.83
2022-11-17T07:09:02.387Z,19.45
2022-11-17T07:11:36.563Z,15.25
2022-11-17T07:14:08.039Z,21.55
2022-11-17T07:16:42.210Z,21.40
2022-11-17T07:19:09.836Z,22.08
2022-11-17T07:21:43.010Z,22.15
2022-11-17T07:24:12.377Z,30.55
2022-11-17T07:26:45.356Z,19.98
2022-11-17T07:29:15.634Z,24.42
2022-11-17T07:31:45.598Z,23.20
2022-11-17T07:34:15.744Z,26.75
2022-11-17T07:36:55.701Z,22.23
2022-11-17T07:39:30.018Z,23.15
2022-11-17T07:41:56.786Z,19.65
2022-11-17T07:44:30.083Z,24.80
2022-11-17T07:46:57.459Z,27.20
2022-11-17T07:49:27.464Z,27.27
2022-11-17T07:51:57.422Z,22.52
2022-11-17T07:54:26.799Z,24.23
2022-11-17T07:56:57.738Z,30.40
2022-11-17T07:59:26.084Z,26.77
2022-11-17T08:02:00.521Z,34.63
2022-11-17T08:04:33.804Z,60.88
2022-11-17T08:07:00.798Z,27.23
2022-11-17T08:09:33.152Z,35.25
2022-11-17T08:12:09.380Z,30.75
2022-11-17T08:14:59.377Z,25.83
2022-11-17T08:17:31.633Z,30.25
2022-11-17T08:20:07.334Z,29.83
2022-11-17T08:22:38.043Z,24.15
2022-11-17T08:25:07.985Z,33.72
2022-11-17T08:27:41.984Z,27.45
2022-11-17T08:30:14.713Z,27.08
2022-11-17T08:32:47.528Z,29.98
2022-11-17T08:35:20.244Z,30.90
2022-11-17T08:37:54.759Z,33.85
2022-11-17T08:40:24.518Z,30.58
2022-11-17T08:43:00.929Z,30.98
2022-11-17T08:45:35.945Z,24.60
2022-11-17T08:48:08.980Z,30.90
2022-11-17T08:50:43.945Z,24.55
2022-11-17T08:53:18.499Z,25.17
2022-11-17T08:55:55.985Z,24.83
2022-11-17T08:58:32.456Z,20.05
2022-11-17T09:01:07.186Z,28.90
2022-11-17T09:03:42.940Z,28.58
2022-11-17T09:06:12.960Z,29.05
2022-11-17T09:08:46.216Z,41.10
2022-11-17T09:11:36.121Z,26.02
2022-11-17T09:14:09.260Z,27.98
2022-11-17T09:16:37.525Z,38.63
2022-11-17T09:19:07.725Z,34.00
2022-11-17T09:21:39.686Z,29.40
2022-11-17T09:24:10.161Z,31.08
2022-11-17T09:26:51.756Z,24.38
2022-11-17T09:29:24.453Z,25.08
2022-11-17T09:31:57.125Z,29.98
2022-11-17T09:34:25.229Z,28.40
2022-11-17T09:36:57.240Z,41.42
2022-11-17T09:39:24.014Z,26.50
2022-11-17T09:41:57.884Z,30.10
2022-11-17T09:47:02.587Z,25.98
2022-11-17T09:49:58.656Z,26.88
2022-11-17T09:52:38.408Z,28.65
2022-11-17T09:55:12.777Z,31.90
2022-11-17T09:57:59.859Z,29.13
2022-11-17T10:00:27.719Z,33.50
2022-11-17T10:02:57.326Z,34.53
2022-11-17T10:05:33.913Z,31.02
2022-11-17T10:08:08.344Z,33.40
2022-11-17T10:10:50.531Z,21.55
2022-11-17T10:13:33.498Z,27.45
2022-11-17T10:16:15.349Z,31.67
2022-11-17T10:18:42.625Z,28.33
2022-11-17T10:21:11.567Z,34.45
2022-11-17T10:23:46.992Z,27.90
2022-11-17T10:26:17.867Z,30.95
2022-11-17T10:28:50.503Z,26.15
2022-11-17T10:31:25.344Z,35.72
2022-11-17T10:33:53.723Z,26.90
2022-11-17T10:36:33.637Z,37.85
2022-11-17T10:39:28.823Z,29.02
2022-11-17T10:42:16.154Z,31.92
2022-11-17T10:44:51.377Z,25.90
2022-11-17T10:47:34.421Z,34.40
2022-11-17T10:50:15.253Z,35.25
2022-11-17T10:52:48.402Z,36.03
2022-11-17T10:55:31.838Z,35.13
2022-11-17T10:58:01.115Z,54.92
2022-11-17T11:00:43.709Z,36.15
2022-11-17T11:03:24.540Z,38.15
2022-11-17T11:05:57.502Z,33.70
2022-11-17T11:08:36.826Z,37.45
2022-11-17T11:11:07.863Z,34.13
2022-11-17T11:13:44.742Z,36.50
2022-11-17T11:16:14.153Z,35.65
2022-11-17T11:18:43.925Z,42.85
2022-11-17T11:21:18.501Z,46.53
2022-11-17T11:23:57.420Z,35.05
2022-11-17T11:26:34.304Z,32.67
2022-11-17T11:29:49.416Z,38.78
2022-11-17T11:32:37.116Z,38.35
2022-11-17T11:35:35.204Z,37.00
2022-11-17T11:39:03.421Z,33.78
2022-11-17T11:41:46.307Z,34.55
2022-11-17T11:44:42.309Z,41.67
2022-11-17T11:47:30.247Z,36.55
2022-11-17T11:50:00.772Z,45.65
2022-11-17T11:52:49.270Z,39.38
2022-11-17T11:55:49.724Z,43.03
2022-11-17T11:58:47.953Z,36.53
2022-11-17T12:01:17.241Z,40.28
2022-11-17T12:06:45.346Z,47.97
2022-11-17T12:09:19.833Z,38.22
2022-11-17T12:12:04.851Z,41.38
2022-11-17T12:14:40.085Z,44.47
2022-11-17T12:17:18.657Z,45.85
2022-11-17T12:20:10.517Z,37.03
2022-11-17T12:22:58.704Z,42.97
2022-11-17T12:25:30.633Z,41.67
2022-11-17T12:27:57.850Z,44.22
2022-11-17T12:30:31.190Z,44.35
2022-11-17T12:33:09.976Z,54.15
2022-11-17T12:35:39.562Z,43.78
2022-11-17T12:38:13.652Z,44.20
2022-11-17T12:40:47.892Z,46.70
2022-11-17T12:43:23.277Z,36.67
2022-11-17T12:45:53.347Z,41.47
2022-11-17T12:48:36.056Z,35.00
2022-11-17T12:51:06.568Z,39.67
2022-11-17T12:53:39.813Z,37.00
2022-11-17T12:56:13.079Z,42.60
2022-11-17T12:58:51.062Z,40.25
2022-11-17T13:01:55.808Z,40.13
2022-11-17T13:07:12.899Z,36.58
2022-11-17T13:09:43.798Z,34.53
2022-11-17T13:12:11.240Z,37.90
2022-11-17T13:15:04.917Z,38.58
2022-11-17T13:17:42.527Z,36.15
2022-11-17T13:20:16.095Z,38.63
2022-11-17T13:23:01.846Z,40.53
2022-11-17T13:25:28.779Z,40.00
2022-11-17T13:28:01.232Z,37.90
2022-11-17T13:30:32.944Z,39.22
2022-11-17T13:33:05.890Z,41.97
2022-11-17T13:35:36.192Z,35.17
2022-11-17T13:38:12.195Z,40.28
2022-11-17T13:40:43.513Z,38.03
2022-11-17T13:43:15.598Z,42.42
2022-11-17T13:45:45.775Z,36.25
2022-11-17T13:48:34.659Z,39.47
2022-11-17T13:51:26.529Z,36.00
2022-11-17T13:54:07.045Z,33.45
2022-11-17T13:56:37.618Z,34.67
2022-11-17T13:59:06.715Z,41.40
2022-11-17T14:01:37.228Z,39.70
2022-11-17T14:04:21.911Z,35.53
2022-11-17T14:06:58.834Z,38.75
2022-11-17T14:09:27.573Z,39.88
2022-11-17T14:11:55.144Z,60.83
2022-11-17T14:14:26.782Z,48.30
2022-11-17T14:16:54.146Z,43.33
2022-11-17T14:19:34.855Z,43.70
2022-11-17T14:22:05.296Z,38.13
2022-11-17T14:24:33.017Z,41.92
2022-11-17T14:26:59.965Z,43.78
2022-11-17T14:29:31.720Z,39.88
2022-11-17T14:31:59.018Z,48.47
2022-11-17T14:34:26.339Z,42.55
2022-11-17T14:36:54.980Z,48.53
2022-11-17T14:39:22.411Z,51.15
2022-11-17T14:41:50.399Z,47.30
2022-11-17T14:44:23.385Z,45.63
2022-11-17T14:46:50.762Z,50.60
2022-11-17T14:49:21.091Z,44.78
2022-11-17T14:51:51.698Z,50.13
2022-11-17T14:54:18.410Z,44.88
2022-11-17T14:56:45.736Z,50.70
2022-11-17T14:59:13.838Z,45.78
2022-11-17T15:01:49.284Z,48.60
2022-11-17T15:04:48.822Z,47.22
2022-11-17T15:07:06.500Z,44.55
2022-11-17T15:09:46.065Z,50.25
2022-11-17T15:12:12.998Z,57.28
2022-11-17T15:14:43.748Z,44.42
2022-11-17T15:17:14.470Z,54.97
2022-11-17T15:19:41.714Z,65.10
2022-11-17T15:22:08.672Z,82.05
2022-11-17T15:24:35.399Z,95.03
2022-11-17T15:27:02.243Z,109.03
2022-11-17T15:29:29.202Z,93.30
2022-11-17T15:31:56.012Z,88.20
2022-11-17T15:34:22.809Z,86.70
2022-11-17T15:36:49.616Z,79.88
2022-11-17T15:39:16.807Z,76.95
2022-11-17T15:41:43.963Z,96.95
2022-11-17T15:44:10.675Z,90.57
2022-11-17T15:46:40.529Z,74.20
2022-11-17T15:49:19.714Z,60.80
2022-11-17T15:51:52.508Z,66.00
2022-11-17T15:54:21.252Z,64.95
2022-11-17T15:56:51.714Z,66.95
2022-11-17T15:59:19.088Z,67.45
2022-11-17T16:01:46.625Z,55.58
2022-11-17T16:04:17.181Z,59.38
2022-11-17T16:06:44.745Z,62.70
2022-11-17T16:09:12.937Z,55.30
2022-11-17T16:11:40.338Z,71.03
2022-11-17T16:14:07.244Z,70.03
2022-11-17T16:16:42.288Z,65.82
2022-11-17T16:19:15.966Z,60.53
2022-11-17T16:21:46.221Z,68.85
2022-11-17T16:24:15.680Z,63.57
2022-11-17T16:26:43.309Z,58.83
2022-11-17T16:29:10.217Z,58.38
2022-11-17T16:31:37.748Z,56.63
2022-11-17T16:34:10.847Z,60.10
2022-11-17T16:36:38.247Z,61.25
2022-11-17T16:39:09.685Z,65.65
2022-11-17T16:41:37.669Z,62.08
2022-11-17T16:44:08.842Z,65.60
2022-11-17T16:46:35.962Z,71.40
2022-11-17T16:49:06.217Z,72.97
2022-11-17T16:51:33.097Z,73.30
2022-11-17T16:54:01.683Z,70.88
2022-11-17T16:56:29.181Z,64.78
2022-11-17T16:59:02.953Z,72.95
2022-11-17T17:01:30.689Z,65.15
2022-11-17T17:03:58.246Z,62.83
2022-11-17T17:06:25.404Z,63.42
2022-11-17T17:08:56.125Z,65.30
2022-11-17T17:11:23.116Z,63.97
2022-11-17T17:13:49.979Z,73.85
2022-11-17T17:16:20.947Z,66.40
2022-11-17T17:19:02.690Z,64.65
2022-11-17T17:21:30.830Z,63.47
2022-11-17T17:23:58.364Z,61.08
2022-11-17T17:26:26.673Z,66.55
2022-11-17T17:28:55.104Z,60.95
2022-11-17T17:31:22.712Z,63.40
2022-11-17T17:33:50.593Z,73.25
2022-11-17T17:36:18.919Z,62.60
2022-11-17T17:38:48.933Z,61.85
2022-11-17T17:41:20.232Z,61.80
2022-11-17T17:43:47.465Z,58.13
2022-11-17T17:46:16.016Z,68.20
2022-11-17T17:48:44.647Z,54.00
2022-11-17T17:51:15.236Z,62.58
2022-11-17T17:53:42.497Z,58.15
2022-11-17T17:56:11.120Z,61.40
2022-11-17T17:58:41.461Z,58.60
2022-11-17T18:01:08.383Z,58.03
2022-11-17T18:03:35.189Z,51.80
2022-11-17T18:06:08.520Z,59.22
2022-11-17T18:08:36.004Z,71.78
2022-11-17T18:11:03.899Z,58.50
2022-11-17T18:13:34.417Z,55.00
2022-11-17T18:16:21.202Z,56.17
2022-11-17T18:18:55.831Z,58.22
2022-11-17T18:21:33.840Z,60.38
2022-11-17T18:24:06.422Z,53.22
2022-11-17T18:26:39.760Z,57.00
2022-11-17T18:29:17.473Z,56.63
2022-11-17T18:31:47.411Z,57.42
2022-11-17T18:34:15.320Z,61.72
2022-11-17T18:36:42.288Z,61.47
2022-11-17T18:39:09.483Z,62.00
2022-11-17T18:41:36.559Z,65.28
2022-11-17T18:44:03.684Z,73.15
2022-11-17T18:46:38.158Z,64.47
2022-11-17T18:49:07.738Z,65.30
2022-11-17T18:51:34.629Z,66.97
2022-11-17T18:54:02.813Z,66.78
2022-11-17T18:56:34.496Z,59.92
2022-11-17T18:59:14.885Z,56.67
2022-11-17T19:01:51.975Z,62.72
2022-11-17T19:04:18.786Z,69.43
2022-11-17T19:06:45.629Z,65.22
2022-11-17T19:09:13.518Z,62.00
2022-11-17T19:11:40.506Z,56.63
2022-11-17T19:14:07.275Z,56.22
2022-11-17T19:16:42.537Z,60.05
2022-11-17T19:19:10.887Z,56.83
2022-11-17T19:21:37.669Z,54.72
2022-11-17T19:24:04.673Z,58.08
2022-11-17T19:26:32.767Z,50.83
2022-11-17T19:29:09.888Z,53.30
2022-11-17T19:31:39.935Z,55.65
2022-11-17T19:34:07.254Z,52.95
2022-11-17T19:36:34.307Z,53.55
2022-11-17T19:39:01.971Z,56.30
2022-11-17T19:41:36.383Z,56.22
2022-11-17T19:44:08.879Z,58.35
2022-11-17T19:46:39.023Z,58.45
2022-11-17T19:49:06.402Z,53.55
2022-11-17T19:51:34.251Z,53.38
2022-11-17T19:54:02.282Z,62.15
2022-11-17T19:56:30.095Z,58.25
2022-11-17T19:58:58.105Z,56.67
2022-11-17T20:01:29.098Z,54.63
2022-11-17T20:03:57.731Z,60.47
2022-11-17T20:06:27.375Z,52.45
2022-11-17T20:08:55.161Z,52.17
2022-11-17T20:11:26.924Z,58.63
2022-11-17T20:13:54.368Z,60.03
2022-11-17T20:16:22.259Z,69.50
2022-11-17T20:18:50.001Z,75.35
2022-11-17T20:21:18.683Z,66.13
2022-11-17T20:23:45.881Z,57.40
2022-11-17T20:26:14.104Z,60.45
2022-11-17T20:28:41.192Z,59.13
2022-11-17T20:31:10.163Z,57.72
2022-11-17T20:33:38.071Z,54.33
2022-11-17T20:36:05.221Z,60.95
2022-11-17T20:38:32.065Z,55.28
2022-11-17T20:41:10.457Z,70.63
2022-11-17T20:43:37.306Z,61.85
2022-11-17T20:46:04.451Z,51.50
2022-11-17T20:48:34.093Z,57.97
2022-11-17T20:51:02.270Z,50.78
2022-11-17T20:53:32.888Z,54.10
2022-11-17T20:56:00.646Z,51.92
2022-11-17T20:58:28.244Z,48.45
2022-11-17T21:00:55.514Z,48.50
2022-11-17T21:03:22.889Z,49.17
2022-11-17T21:06:03.410Z,47.50
2022-11-17T21:08:32.873Z,51.17
2022-11-17T21:11:00.794Z,52.17
2022-11-17T21:13:28.034Z,53.63
2022-11-17T21:16:11.431Z,44.85
2022-11-17T21:18:41.047Z,54.47
2022-11-17T21:21:11.625Z,50.22
2022-11-17T21:23:39.483Z,54.03
2022-11-17T21:26:07.496Z,50.13
2022-11-17T21:28:38.502Z,49.10
2022-11-17T21:31:07.713Z,54.15
2022-11-17T21:33:35.153Z,48.33
2022-11-17T21:36:06.794Z,52.88
2022-11-17T21:38:33.550Z,48.90
2022-11-17T21:41:13.797Z,52.60
2022-11-17T21:43:41.677Z,45.58
2022-11-17T21:46:12.661Z,49.10
2022-11-17T21:48:39.966Z,51.20
2022-11-17T21:51:08.189Z,42.30
2022-11-17T21:53:35.748Z,48.47
2022-11-17T21:56:03.880Z,47.42
2022-11-17T21:58:31.058Z,50.63
2022-11-17T22:00:58.071Z,57.28
2022-11-17T22:03:29.447Z,50.40
2022-11-17T22:06:04.571Z,49.78
2022-11-17T22:08:31.610Z,53.72
2022-11-17T22:11:02.552Z,48.72
2022-11-17T22:13:29.411Z,56.10
2022-11-17T22:15:56.293Z,54.30
2022-11-17T22:18:23.214Z,53.35
2022-11-17T22:20:52.569Z,52.45
2022-11-17T22:23:20.798Z,56.50
2022-11-17T22:26:01.675Z,57.97
2022-11-17T22:28:28.641Z,53.97
2022-11-17T22:30:56.227Z,54.88
2022-11-17T22:33:23.451Z,61.72
2022-11-17T22:35:50.552Z,51.17
2022-11-17T22:38:17.392Z,50.45
2022-11-17T22:40:44.243Z,46.08
2022-11-17T22:43:14.986Z,51.08
2022-11-17T22:45:42.699Z,51.15
2022-11-17T22:48:23.062Z,50.88
2022-11-17T22:50:54.116Z,54.22
2022-11-17T22:53:23.807Z,50.78
2022-11-17T22:55:51.216Z,47.33
2022-11-17T22:58:18.252Z,45.30
2022-11-17T23:00:45.127Z,46.97
2022-11-17T23:03:12.536Z,47.40
2022-11-17T23:05:39.632Z,42.38
2022-11-17T23:08:10.384Z,45.38
2022-11-17T23:10:37.937Z,47.22
2022-11-17T23:13:05.005Z,45.47
2022-11-17T23:15:34.752Z,45.80
2022-11-17T23:18:05.505Z,47.37
2022-11-17T23:20:33.153Z,49.95
2022-11-17T23:23:00.103Z,45.20
2022-11-17T23:25:27.123Z,47.80
2022-11-17T23:27:54.198Z,43.90
2022-11-17T23:30:21.691Z,43.35
2022-11-17T23:32:48.816Z,43.95
2022-11-17T23:35:15.739Z,47.03
2022-11-17T23:37:42.684Z,48.90
2022-11-17T23:40:10.536Z,50.30
2022-11-17T23:42:42.853Z,45.22
2022-11-17T23:45:13.281Z,49.78
2022-11-17T23:47:40.558Z,57.10
2022-11-17T23:50:07.913Z,42.08
2022-11-17T23:52:34.685Z,48.30
2022-11-17T23:55:01.712Z,48.28
2022-11-17T23:57:28.741Z,51.08
2022-11-17T23:59:55.455Z,50.42
